Time;durP1;ratioP1;P1;durP2;ratioP2;P2;SDS_P1;SDS_P2;PMS_P1;PMS_P2;Temp;Humidity;BMP_temperature;BMP_pressure;BME280_temperature;BME280_humidity;BME280_pressure;Samples;Min_cycle;Max_cycle;Signal;HPM_P1;HPM_P2
2023/12/24 00:00:37;;;;;;;0.40;0.38;;;9.10;98.30;;;;;;5052356;28;20049;-65
2023/12/24 00:03:04;;;;;;;1.08;0.43;;;9.10;98.50;;;;;;5052467;28;20031;-65
2023/12/24 00:05:29;;;;;;;0.40;0.40;;;9.10;98.50;;;;;;5052241;28;20109;-65
2023/12/24 00:07:55;;;;;;;0.30;0.30;;;9.10;98.50;;;;;;5060956;28;20060;-66
2023/12/24 00:10:21;;;;;;;0.40;0.32;;;9.10;98.30;;;;;;5072523;28;20154;-66
2023/12/24 00:12:46;;;;;;;3.15;0.50;;;9.10;98.40;;;;;;5072430;28;20078;-65
2023/12/24 00:15:12;;;;;;;0.77;0.50;;;9.10;98.50;;;;;;5072413;28;20055;-65
2023/12/24 00:17:37;;;;;;;0.35;0.35;;;9.10;98.20;;;;;;5072081;28;20115;-65
2023/12/24 00:20:04;;;;;;;0.75;0.35;;;9.10;98.10;;;;;;5072449;28;20362;-65
2023/12/24 00:22:29;;;;;;;2.08;0.43;;;9.20;97.90;;;;;;5072051;28;20028;-65
2023/12/24 00:24:55;;;;;;;0.47;0.47;;;9.20;97.70;;;;;;5072328;28;20025;-66
2023/12/24 00:27:20;;;;;;;0.43;0.40;;;9.20;97.60;;;;;;5071375;28;20064;-64
2023/12/24 00:29:46;;;;;;;1.00;0.40;;;9.20;97.30;;;;;;5072270;28;20023;-66
2023/12/24 00:32:12;;;;;;;1.00;0.50;;;9.20;97.30;;;;;;5072282;28;20028;-66
2023/12/24 00:34:37;;;;;;;0.35;0.35;;;9.30;97.30;;;;;;5055285;28;20450;-65
2023/12/24 00:37:03;;;;;;;0.88;0.55;;;9.30;97.30;;;;;;5052075;28;20025;-64
2023/12/24 00:39:29;;;;;;;0.30;0.30;;;9.20;97.20;;;;;;5051772;28;20021;-65
2023/12/24 00:41:54;;;;;;;0.40;0.30;;;9.30;96.90;;;;;;5052109;28;20047;-65
2023/12/24 00:44:20;;;;;;;0.38;0.38;;;9.30;96.70;;;;;;5051786;28;20463;-65
2023/12/24 00:46:47;;;;;;;0.30;0.30;;;9.30;96.50;;;;;;5051898;28;20021;-66
2023/12/24 00:49:13;;;;;;;0.30;0.30;;;9.30;96.70;;;;;;5052156;28;20099;-65
2023/12/24 00:51:42;;;;;;;0.70;0.40;;;9.30;96.70;;;;;;5051275;28;20029;-65
2023/12/24 00:54:08;;;;;;;0.38;0.38;;;9.30;96.20;;;;;;5051904;28;20033;-65
2023/12/24 00:56:34;;;;;;;0.30;0.30;;;9.40;96.20;;;;;;5052014;28;20029;-64
2023/12/24 00:59:00;;;;;;;0.55;0.30;;;9.40;96.30;;;;;;5052091;28;20056;-64
2023/12/24 01:01:25;;;;;;;0.73;0.40;;;9.30;96.40;;;;;;5051793;28;20485;-64
2023/12/24 01:03:51;;;;;;;0.30;0.30;;;9.30;96.50;;;;;;5051970;28;20032;-65
2023/12/24 01:06:17;;;;;;;0.40;0.40;;;9.30;96.70;;;;;;5051937;28;20150;-67
2023/12/24 01:08:42;;;;;;;0.82;0.40;;;9.30;97.00;;;;;;5051499;28;20394;-65
2023/12/24 01:11:08;;;;;;;2.28;0.50;;;9.30;97.00;;;;;;5052015;28;20355;-64
2023/12/24 01:13:33;;;;;;;1.17;0.43;;;9.30;97.00;;;;;;5051515;28;20037;-66
2023/12/24 01:16:01;;;;;;;0.43;0.35;;;9.30;97.00;;;;;;5050552;28;20098;-66
2023/12/24 01:18:27;;;;;;;0.50;0.40;;;9.30;97.30;;;;;;5051412;28;20029;-66
2023/12/24 01:20:53;;;;;;;0.65;0.40;;;9.30;97.50;;;;;;5051710;28;20029;-66
2023/12/24 01:23:18;;;;;;;0.45;0.45;;;9.30;97.60;;;;;;5051797;28;20039;-65
2023/12/24 01:25:44;;;;;;;1.10;0.47;;;9.30;97.80;;;;;;5051479;28;20056;-66
2023/12/24 01:28:10;;;;;;;0.45;0.32;;;9.30;97.90;;;;;;5051514;28;20028;-65
2023/12/24 01:30:36;;;;;;;0.93;0.50;;;9.20;97.90;;;;;;5051275;28;20029;-66
2023/12/24 01:33:02;;;;;;;0.75;0.47;;;9.20;98.10;;;;;;5050491;28;20112;-64
2023/12/24 01:35:27;;;;;;;0.57;0.30;;;9.20;98.40;;;;;;5051308;28;20033;-67
2023/12/24 01:37:54;;;;;;;0.47;0.30;;;9.20;98.00;;;;;;5051727;28;20029;-65
2023/12/24 01:40:19;;;;;;;0.77;0.50;;;9.20;97.90;;;;;;5053872;28;20033;-65
2023/12/24 01:42:45;;;;;;;0.52;0.50;;;9.20;98.00;;;;;;5054410;28;20492;-65
2023/12/24 01:45:11;;;;;;;0.45;0.40;;;9.20;98.20;;;;;;5055045;28;20055;-65
2023/12/24 01:47:37;;;;;;;0.32;0.32;;;9.20;98.00;;;;;;5054454;28;20040;-65
2023/12/24 01:50:04;;;;;;;0.40;0.40;;;9.30;97.50;;;;;;5055382;28;20473;-65
2023/12/24 01:52:30;;;;;;;0.75;0.30;;;9.30;97.70;;;;;;5054572;28;20056;-66
2023/12/24 01:54:57;;;;;;;0.35;0.32;;;9.30;97.80;;;;;;5054720;28;20029;-64
2023/12/24 01:57:23;;;;;;;2.08;0.40;;;9.30;97.10;;;;;;5054931;28;20017;-67
2023/12/24 01:59:50;;;;;;;0.68;0.50;;;9.30;97.10;;;;;;5054529;28;20053;-66
2023/12/24 02:02:17;;;;;;;0.98;0.43;;;9.30;97.10;;;;;;5054364;28;20477;-65
2023/12/24 02:04:43;;;;;;;3.15;0.50;;;9.30;96.80;;;;;;5054024;28;20029;-65
2023/12/24 02:07:10;;;;;;;0.90;0.40;;;9.30;96.60;;;;;;5054787;28;20071;-66
2023/12/24 02:09:36;;;;;;;0.75;0.40;;;9.40;96.30;;;;;;5054122;28;20126;-65
2023/12/24 02:12:02;;;;;;;0.50;0.30;;;9.40;96.40;;;;;;5063697;28;20535;-65
2023/12/24 02:14:28;;;;;;;0.55;0.30;;;9.40;96.60;;;;;;5074011;28;20029;-65
2023/12/24 02:16:57;;;;;;;1.48;0.47;;;9.40;96.80;;;;;;5074494;28;20042;-65
2023/12/24 02:19:24;;;;;;;0.50;0.50;;;9.40;96.90;;;;;;5074422;28;20484;-65
2023/12/24 02:21:49;;;;;;;0.30;0.30;;;9.40;97.10;;;;;;5073861;28;20029;-66
2023/12/24 02:24:15;;;;;;;0.43;0.43;;;9.30;97.00;;;;;;5074297;28;20158;-65
2023/12/24 02:26:57;;;;;;;0.90;0.25;;;9.30;96.60;;;;;;5073757;28;20028;-65
2023/12/24 02:29:31;;;;;;;4.57;1.25;;;9.40;96.70;;;;;;5074218;28;20016;-65
2023/12/24 02:32:10;;;;;;;0.40;0.40;;;9.30;96.70;;;;;;5074125;28;20036;-64
2023/12/24 02:34:38;;;;;;;0.75;0.50;;;9.30;96.50;;;;;;5073691;28;20555;-65
2023/12/24 02:37:05;;;;;;;0.63;0.57;;;9.30;96.20;;;;;;5067680;28;20028;-65
2023/12/24 02:39:31;;;;;;;0.50;0.43;;;9.30;95.90;;;;;;5053622;28;20031;-65
2023/12/24 02:41:56;;;;;;;0.90;0.47;;;9.40;95.50;;;;;;5053419;28;20108;-66
2023/12/24 02:44:22;;;;;;;2.95;0.40;;;9.40;95.40;;;;;;5053711;28;20036;-65
2023/12/24 02:46:47;;;;;;;0.65;0.45;;;9.40;95.10;;;;;;5053471;28;20061;-66
2023/12/24 02:49:14;;;;;;;0.70;0.50;;;9.40;95.00;;;;;;5053623;28;20120;-65
2023/12/24 02:51:40;;;;;;;0.93;0.60;;;9.40;94.60;;;;;;5051934;28;20104;-66
2023/12/24 02:54:06;;;;;;;0.52;0.40;;;9.50;94.60;;;;;;5054029;28;20123;-66
2023/12/24 02:56:36;;;;;;;1.88;0.52;;;9.50;94.60;;;;;;5053203;28;20025;-66
2023/12/24 02:59:03;;;;;;;0.45;0.40;;;9.50;94.40;;;;;;5053519;28;20099;-65
2023/12/24 03:01:30;;;;;;;2.25;0.57;;;9.50;94.50;;;;;;5053350;28;20486;-65
2023/12/24 03:03:56;;;;;;;0.52;0.50;;;9.50;94.50;;;;;;5053216;28;20028;-65
2023/12/24 03:06:22;;;;;;;0.50;0.50;;;9.50;94.40;;;;;;5053434;28;20060;-65
2023/12/24 03:08:48;;;;;;;0.47;0.40;;;9.50;94.40;;;;;;5052979;28;20074;-66
2023/12/24 03:11:13;;;;;;;1.27;0.50;;;9.50;94.40;;;;;;5051988;28;20029;-65
2023/12/24 03:13:39;;;;;;;0.30;0.30;;;9.50;94.30;;;;;;5051580;28;20065;-66
2023/12/24 03:16:05;;;;;;;0.52;0.40;;;9.50;94.40;;;;;;5053343;28;20029;-66
2023/12/24 03:18:30;;;;;;;0.43;0.40;;;9.50;94.30;;;;;;5053353;28;20033;-64
2023/12/24 03:20:57;;;;;;;0.60;0.32;;;9.50;94.30;;;;;;5052421;28;20060;-67
2023/12/24 03:23:22;;;;;;;0.90;0.43;;;9.50;94.10;;;;;;5053116;28;20107;-65
2023/12/24 03:25:48;;;;;;;0.50;0.50;;;9.50;94.00;;;;;;5052580;28;20120;-65
2023/12/24 03:28:13;;;;;;;1.08;0.50;;;9.50;93.80;;;;;;5052732;28;20036;-66
2023/12/24 03:30:39;;;;;;;2.47;0.40;;;9.50;93.90;;;;;;5052615;28;20025;-65
2023/12/24 03:33:05;;;;;;;1.95;0.35;;;9.50;93.80;;;;;;5052922;28;20061;-65
2023/12/24 03:35:31;;;;;;;0.38;0.38;;;9.50;93.80;;;;;;5052813;28;20033;-65
2023/12/24 03:37:56;;;;;;;0.88;0.45;;;9.50;93.60;;;;;;5052427;28;20032;-65
2023/12/24 03:40:22;;;;;;;2.42;0.30;;;9.50;93.60;;;;;;5052756;28;20385;-65
2023/12/24 03:42:48;;;;;;;3.13;0.43;;;9.50;93.60;;;;;;5052540;28;20458;-65
2023/12/24 03:45:13;;;;;;;1.08;0.38;;;9.50;93.40;;;;;;5052749;28;20029;-65
2023/12/24 03:47:39;;;;;;;0.32;0.32;;;9.60;93.40;;;;;;5051945;28;20436;-66
2023/12/24 03:50:05;;;;;;;0.30;0.28;;;9.50;93.40;;;;;;5052693;28;20183;-64
2023/12/24 03:52:31;;;;;;;1.00;0.40;;;9.60;93.40;;;;;;5052448;28;20083;-65
2023/12/24 03:54:57;;;;;;;2.25;0.30;;;9.50;93.50;;;;;;5051888;28;20485;-65
2023/12/24 03:57:23;;;;;;;0.57;0.30;;;9.50;93.50;;;;;;5052427;28;20063;-65
2023/12/24 03:59:48;;;;;;;0.30;0.30;;;9.50;93.60;;;;;;5051966;28;20045;-64
2023/12/24 04:02:14;;;;;;;2.15;0.47;;;9.50;93.20;;;;;;5051660;28;20029;-66
2023/12/24 04:04:47;;;;;;;0.95;0.40;;;9.50;93.20;;;;;;5052009;28;20025;-66
2023/12/24 04:07:15;;;;;;;0.75;0.35;;;9.50;93.50;;;;;;5052453;28;20055;-66
2023/12/24 04:09:42;;;;;;;1.67;0.32;;;9.50;93.30;;;;;;5051859;28;20025;-65
2023/12/24 04:12:08;;;;;;;0.98;0.52;;;9.50;93.20;;;;;;5052172;28;20029;-65
2023/12/24 04:14:37;;;;;;;0.60;0.57;;;9.50;93.20;;;;;;5052280;28;20048;-65
2023/12/24 04:17:04;;;;;;;0.20;0.20;;;9.50;93.20;;;;;;5055008;28;20120;-64
2023/12/24 04:19:29;;;;;;;0.55;0.40;;;9.50;93.30;;;;;;5072215;28;20039;-65
2023/12/24 04:21:55;;;;;;;1.20;0.40;;;9.50;93.30;;;;;;5072042;28;20032;-65
2023/12/24 04:24:20;;;;;;;0.30;0.30;;;9.50;93.20;;;;;;5072216;28;20458;-65
2023/12/24 04:26:46;;;;;;;2.05;0.38;;;9.50;93.20;;;;;;5071726;28;20035;-65
2023/12/24 04:29:13;;;;;;;0.30;0.30;;;9.50;93.10;;;;;;5072078;28;20030;-66
2023/12/24 04:31:39;;;;;;;0.82;0.43;;;9.50;93.00;;;;;;5071340;28;20042;-66
2023/12/24 04:34:07;;;;;;;0.50;0.40;;;9.50;93.00;;;;;;5071972;28;20163;-66
2023/12/24 04:36:36;;;;;;;0.30;0.30;;;9.50;93.10;;;;;;5071852;28;20104;-66
2023/12/24 04:39:02;;;;;;;1.75;0.35;;;9.50;92.80;;;;;;5067834;28;20025;-64
2023/12/24 04:41:28;;;;;;;0.93;0.45;;;9.50;92.90;;;;;;5051650;28;20116;-65
2023/12/24 04:43:55;;;;;;;0.47;0.30;;;9.50;92.80;;;;;;5051213;28;20037;-65
2023/12/24 04:46:20;;;;;;;0.60;0.35;;;9.50;92.80;;;;;;5051622;28;20025;-65
2023/12/24 04:48:46;;;;;;;0.40;0.40;;;9.50;92.80;;;;;;5051189;28;20051;-65
2023/12/24 04:51:12;;;;;;;0.30;0.30;;;9.50;92.80;;;;;;5050870;28;20032;-65
2023/12/24 04:53:37;;;;;;;0.22;0.22;;;9.50;92.60;;;;;;5051659;28;20033;-65
2023/12/24 04:56:03;;;;;;;0.40;0.40;;;9.50;92.60;;;;;;5051184;28;20516;-65
2023/12/24 04:58:29;;;;;;;1.70;0.50;;;9.50;92.70;;;;;;5051321;28;20064;-66
2023/12/24 05:00:56;;;;;;;0.55;0.35;;;9.50;92.50;;;;;;5050992;28;20064;-65
2023/12/24 05:03:21;;;;;;;0.50;0.40;;;9.50;92.30;;;;;;5051249;28;20032;-65
2023/12/24 05:05:47;;;;;;;0.55;0.38;;;9.60;92.60;;;;;;5050967;28;20079;-65
2023/12/24 05:08:13;;;;;;;0.30;0.30;;;9.50;92.60;;;;;;5051533;28;20029;-65
2023/12/24 05:10:39;;;;;;;0.30;0.30;;;9.50;92.60;;;;;;5051291;28;20036;-65
2023/12/24 05:13:04;;;;;;;0.47;0.30;;;9.50;92.60;;;;;;5051236;28;20056;-65
2023/12/24 05:15:30;;;;;;;0.30;0.30;;;9.50;92.60;;;;;;5055276;28;20107;-65
2023/12/24 05:17:55;;;;;;;2.42;0.40;;;9.50;92.60;;;;;;5054630;28;20021;-65
2023/12/24 05:20:21;;;;;;;0.32;0.32;;;9.50;92.50;;;;;;5055108;28;20032;-65
2023/12/24 05:22:47;;;;;;;1.58;0.30;;;9.50;92.60;;;;;;5054999;28;20489;-65
2023/12/24 05:25:12;;;;;;;0.43;0.30;;;9.40;92.60;;;;;;5055011;28;20064;-65
2023/12/24 05:27:38;;;;;;;2.45;0.30;;;9.40;92.70;;;;;;5055022;28;20025;-64
2023/12/24 05:30:08;;;;;;;0.50;0.40;;;9.40;92.80;;;;;;5054428;28;20476;-66
2023/12/24 05:32:33;;;;;;;1.75;0.30;;;9.40;93.00;;;;;;5054563;28;20036;-65
2023/12/24 05:34:59;;;;;;;0.30;0.30;;;9.40;93.00;;;;;;5053182;28;20033;-65
2023/12/24 05:37:25;;;;;;;3.47;0.30;;;9.40;93.10;;;;;;5054861;28;20373;-65
2023/12/24 05:39:50;;;;;;;0.50;0.40;;;9.30;93.20;;;;;;5054359;28;20112;-64
2023/12/24 05:42:16;;;;;;;0.40;0.30;;;9.30;93.20;;;;;;5054886;28;20424;-64
2023/12/24 05:44:41;;;;;;;0.30;0.30;;;9.40;93.10;;;;;;5054935;28;20033;-65
2023/12/24 05:47:07;;;;;;;0.43;0.38;;;9.40;93.20;;;;;;5054539;28;20040;-65
2023/12/24 05:49:37;;;;;;;0.30;0.30;;;9.30;93.10;;;;;;5054834;28;20067;-64
2023/12/24 05:52:02;;;;;;;0.40;0.30;;;9.40;93.20;;;;;;5054101;28;20082;-65
2023/12/24 05:54:28;;;;;;;0.32;0.32;;;9.30;93.20;;;;;;5054276;28;20109;-64
2023/12/24 05:56:54;;;;;;;0.70;0.30;;;9.30;93.00;;;;;;5053698;28;20032;-65
2023/12/24 05:59:19;;;;;;;0.40;0.40;;;9.30;93.10;;;;;;5054138;28;20064;-65
2023/12/24 06:01:45;;;;;;;0.57;0.50;;;9.30;93.30;;;;;;5054134;28;20037;-67
2023/12/24 06:04:10;;;;;;;0.30;0.30;;;9.30;93.40;;;;;;5054104;28;20148;-66
2023/12/24 06:06:40;;;;;;;1.50;0.30;;;9.30;93.30;;;;;;5054197;28;20127;-65
2023/12/24 06:09:06;;;;;;;0.50;0.50;;;9.30;93.40;;;;;;5053891;28;20029;-65
2023/12/24 06:11:32;;;;;;;0.57;0.40;;;9.30;93.60;;;;;;5054165;28;20039;-65
2023/12/24 06:13:58;;;;;;;1.65;0.40;;;9.30;93.60;;;;;;5053885;28;20043;-66
2023/12/24 06:16:23;;;;;;;0.30;0.30;;;9.30;93.70;;;;;;5054239;28;20033;-66
2023/12/24 06:18:49;;;;;;;0.63;0.40;;;9.30;93.60;;;;;;5056329;28;20070;-65
2023/12/24 06:21:15;;;;;;;0.45;0.30;;;9.30;93.60;;;;;;5051875;28;20075;-65
2023/12/24 06:23:40;;;;;;;0.80;0.50;;;9.30;93.70;;;;;;5054142;28;20022;-65
2023/12/24 06:26:06;;;;;;;2.95;0.57;;;9.30;93.60;;;;;;5052783;28;20488;-65
2023/12/24 06:28:32;;;;;;;0.30;0.30;;;9.30;93.60;;;;;;5051696;28;20025;-65
2023/12/24 06:30:58;;;;;;;0.50;0.50;;;9.30;93.50;;;;;;5047111;28;20409;-66
2023/12/24 06:33:24;;;;;;;2.83;0.40;;;9.30;93.40;;;;;;5035941;28;20044;-66
2023/12/24 06:35:49;;;;;;;0.40;0.40;;;9.30;93.40;;;;;;5040537;28;20028;-65
2023/12/24 06:38:15;;;;;;;0.77;0.43;;;9.30;93.40;;;;;;5053772;28;20435;-64
2023/12/24 06:40:40;;;;;;;1.08;0.40;;;9.30;93.10;;;;;;5051695;28;20052;-67
2023/12/24 06:43:07;;;;;;;0.75;0.50;;;9.40;93.10;;;;;;5046131;28;20037;-65
2023/12/24 06:45:33;;;;;;;1.48;0.40;;;9.40;92.60;;;;;;5044170;28;20092;-64
2023/12/24 06:48:02;;;;;;;0.30;0.30;;;9.40;92.40;;;;;;5045431;28;20419;-66
2023/12/24 06:50:28;;;;;;;0.55;0.47;;;9.40;92.10;;;;;;5043558;28;20021;-67
2023/12/24 06:52:54;;;;;;;0.50;0.40;;;9.40;92.10;;;;;;5043685;28;20040;-66
2023/12/24 06:55:19;;;;;;;0.50;0.30;;;9.40;91.70;;;;;;5044898;28;20033;-67
2023/12/24 06:57:45;;;;;;;0.57;0.20;;;9.50;91.40;;;;;;5044393;28;20115;-67
2023/12/24 07:00:11;;;;;;;0.40;0.30;;;9.50;91.40;;;;;;5045096;28;20064;-66
2023/12/24 07:02:37;;;;;;;0.95;0.40;;;9.50;91.20;;;;;;5044289;28;20090;-73
2023/12/24 07:05:03;;;;;;;0.30;0.30;;;9.50;91.40;;;;;;5044241;28;20034;-66
2023/12/24 07:07:28;;;;;;;0.82;0.40;;;9.60;92.40;;;;;;5044982;28;20108;-65
2023/12/24 07:09:54;;;;;;;0.35;0.32;;;9.60;91.30;;;;;;5044843;28;20104;-65
2023/12/24 07:12:20;;;;;;;0.30;0.30;;;9.60;90.70;;;;;;5043297;28;20056;-67
2023/12/24 07:14:46;;;;;;;1.33;0.40;;;9.60;90.70;;;;;;5044911;28;20111;-67
2023/12/24 07:17:11;;;;;;;1.25;0.40;;;9.70;90.40;;;;;;5043730;28;20103;-66
2023/12/24 07:19:37;;;;;;;0.98;0.60;;;9.70;90.20;;;;;;5045013;28;20788;-66
2023/12/24 07:22:03;;;;;;;0.70;0.50;;;9.70;90.30;;;;;;5041970;28;20183;-66
2023/12/24 07:24:28;;;;;;;2.83;0.45;;;9.70;90.10;;;;;;5044156;28;20032;-67
2023/12/24 07:26:54;;;;;;;0.77;0.40;;;9.70;89.80;;;;;;5044207;28;20060;-66
2023/12/24 07:29:19;;;;;;;1.25;0.40;;;9.70;89.60;;;;;;5044543;28;20056;-66
2023/12/24 07:31:47;;;;;;;0.40;0.40;;;9.70;89.70;;;;;;5041431;28;20378;-65
2023/12/24 07:34:13;;;;;;;2.08;0.40;;;9.80;89.40;;;;;;5044108;28;20097;-65
2023/12/24 07:36:38;;;;;;;0.85;0.40;;;9.70;89.30;;;;;;5043497;28;20123;-65
2023/12/24 07:39:04;;;;;;;2.58;0.50;;;9.80;89.20;;;;;;5042748;28;20043;-66
2023/12/24 07:41:31;;;;;;;1.67;0.63;;;9.80;89.50;;;;;;5039393;28;20037;-66
2023/12/24 07:43:56;;;;;;;0.73;0.50;;;9.80;89.30;;;;;;5041311;28;20485;-66
2023/12/24 07:46:22;;;;;;;1.50;0.60;;;9.80;88.40;;;;;;5047265;28;20052;-65
2023/12/24 07:48:48;;;;;;;0.50;0.50;;;9.90;88.20;;;;;;5051895;28;20070;-64
2023/12/24 07:51:13;;;;;;;1.40;0.40;;;9.90;88.20;;;;;;5043269;28;20116;-64
2023/12/24 07:53:39;;;;;;;0.98;0.50;;;9.90;88.30;;;;;;5032180;28;20175;-65
2023/12/24 07:56:06;;;;;;;3.17;0.70;;;9.90;88.10;;;;;;5031697;28;20028;-65
2023/12/24 07:58:32;;;;;;;0.60;0.52;;;9.90;87.90;;;;;;5031880;28;20343;-64
2023/12/24 08:00:57;;;;;;;1.48;0.40;;;9.90;87.90;;;;;;5031779;28;20029;-65
2023/12/24 08:03:23;;;;;;;0.60;0.45;;;9.90;87.60;;;;;;5034663;28;20038;-64
2023/12/24 08:05:48;;;;;;;1.63;0.63;;;9.90;87.20;;;;;;5050797;28;20035;-64
2023/12/24 08:08:14;;;;;;;1.65;0.45;;;10.00;87.20;;;;;;5051307;28;20051;-64
2023/12/24 08:10:40;;;;;;;2.10;0.50;;;10.00;87.10;;;;;;5050069;28;20017;-69
2023/12/24 08:13:05;;;;;;;1.85;0.60;;;10.00;90.30;;;;;;5046102;28;20397;-69
2023/12/24 08:15:31;;;;;;;0.43;0.40;;;10.00;87.00;;;;;;5062338;28;20032;-67
2023/12/24 08:17:57;;;;;;;1.45;0.57;;;10.00;86.80;;;;;;5051688;28;20061;-67
2023/12/24 08:20:22;;;;;;;7.65;0.68;;;10.00;86.70;;;;;;5051904;28;20494;-68
2023/12/24 08:22:49;;;;;;;0.75;0.50;;;10.00;86.70;;;;;;5051082;28;20063;-68
2023/12/24 08:25:15;;;;;;;0.40;0.40;;;10.00;86.70;;;;;;5051227;28;20306;-68
2023/12/24 08:27:41;;;;;;;0.80;0.50;;;10.00;86.90;;;;;;5047006;28;20036;-67
2023/12/24 08:30:08;;;;;;;0.88;0.45;;;10.00;86.90;;;;;;5051594;28;20052;-68
2023/12/24 08:32:34;;;;;;;1.13;0.70;;;10.00;86.60;;;;;;5047778;28;20044;-67
2023/12/24 08:34:59;;;;;;;0.40;0.40;;;10.10;86.60;;;;;;5039497;28;20037;-68
2023/12/24 08:37:25;;;;;;;0.50;0.50;;;10.10;86.30;;;;;;5031678;28;20382;-69
2023/12/24 08:39:51;;;;;;;0.90;0.70;;;10.10;87.10;;;;;;5044814;28;20028;-69
2023/12/24 08:42:16;;;;;;;1.00;0.60;;;10.10;86.30;;;;;;5046718;28;20041;-69
2023/12/24 08:44:42;;;;;;;0.90;0.63;;;10.10;86.00;;;;;;5048348;28;20029;-68
2023/12/24 08:47:08;;;;;;;0.80;0.50;;;10.20;86.10;;;;;;5047230;28;20038;-69
2023/12/24 08:49:33;;;;;;;1.65;0.50;;;10.20;86.20;;;;;;5034975;28;20462;-68
2023/12/24 08:51:59;;;;;;;1.20;0.82;;;10.20;85.90;;;;;;5034909;28;20025;-69
2023/12/24 08:54:24;;;;;;;2.60;0.70;;;10.20;86.10;;;;;;5038591;28;20478;-68
2023/12/24 08:56:50;;;;;;;0.90;0.57;;;10.20;86.30;;;;;;5037986;28;20138;-67
2023/12/24 08:59:16;;;;;;;0.70;0.57;;;10.20;86.30;;;;;;5036747;28;20152;-68
2023/12/24 09:01:42;;;;;;;0.40;0.40;;;10.20;85.60;;;;;;5035593;28;20033;-69
2023/12/24 09:04:08;;;;;;;0.40;0.40;;;10.20;85.70;;;;;;5035174;28;20022;-68
2023/12/24 09:06:36;;;;;;;0.98;0.73;;;10.20;85.60;;;;;;5035467;28;20170;-69
2023/12/24 09:09:01;;;;;;;0.52;0.52;;;10.20;85.70;;;;;;5040955;28;20078;-68
2023/12/24 09:11:27;;;;;;;0.88;0.40;;;10.20;85.40;;;;;;5055037;28;20021;-69
2023/12/24 09:13:52;;;;;;;1.08;0.57;;;10.30;84.80;;;;;;5055565;28;20113;-68
2023/12/24 09:16:18;;;;;;;2.05;0.50;;;10.30;84.70;;;;;;5055022;28;20462;-68
2023/12/24 09:18:43;;;;;;;0.68;0.60;;;10.30;84.90;;;;;;5055243;28;20040;-68
2023/12/24 09:21:09;;;;;;;1.48;0.70;;;10.30;84.70;;;;;;5054670;28;20056;-69
2023/12/24 09:23:35;;;;;;;1.40;0.47;;;10.30;84.20;;;;;;5055016;28;20112;-69
2023/12/24 09:26:00;;;;;;;1.38;0.50;;;10.30;84.20;;;;;;5054494;28;20385;-70
2023/12/24 09:28:26;;;;;;;1.15;0.80;;;10.30;83.80;;;;;;5055561;28;20025;-67
2023/12/24 09:30:51;;;;;;;0.50;0.50;;;10.40;84.10;;;;;;5055074;28;20432;-68
2023/12/24 09:33:17;;;;;;;0.60;0.60;;;10.40;84.00;;;;;;5054602;28;20029;-69
2023/12/24 09:35:43;;;;;;;0.63;0.50;;;10.40;83.90;;;;;;5055011;28;20044;-68
2023/12/24 09:38:10;;;;;;;1.00;0.70;;;10.40;83.80;;;;;;5054782;28;20104;-67
2023/12/24 09:40:36;;;;;;;0.73;0.65;;;10.40;83.90;;;;;;5055016;28;20025;-68
2023/12/24 09:43:02;;;;;;;0.68;0.60;;;10.40;84.20;;;;;;5054560;28;20037;-70
2023/12/24 09:45:32;;;;;;;0.60;0.60;;;10.40;84.30;;;;;;5053996;28;20112;-67
2023/12/24 09:47:57;;;;;;;0.95;0.57;;;10.40;84.30;;;;;;5054770;28;20087;-68
2023/12/24 09:50:23;;;;;;;1.80;0.75;;;10.40;84.10;;;;;;5053153;28;20025;-68
2023/12/24 09:52:49;;;;;;;1.05;0.60;;;10.40;84.10;;;;;;5054691;28;20028;-69
2023/12/24 09:55:14;;;;;;;0.95;0.60;;;10.40;84.00;;;;;;5054370;28;20057;-68
2023/12/24 09:57:40;;;;;;;2.28;0.90;;;10.40;83.80;;;;;;5054655;28;20031;-67
2023/12/24 10:00:09;;;;;;;0.65;0.50;;;10.40;83.60;;;;;;5052930;28;20041;-67
2023/12/24 10:02:34;;;;;;;1.85;0.60;;;10.40;83.50;;;;;;5054677;28;20025;-67
2023/12/24 10:05:03;;;;;;;0.45;0.40;;;10.40;83.30;;;;;;5054653;28;20036;-68
2023/12/24 10:07:38;;;;;;;0.60;0.60;;;10.40;83.50;;;;;;5054560;28;20036;-68
2023/12/24 10:10:07;;;;;;;1.08;0.60;;;10.40;83.80;;;;;;5054368;28;20029;-69
2023/12/24 10:12:33;;;;;;;0.95;0.70;;;10.40;83.70;;;;;;5054264;28;20036;-67
2023/12/24 10:14:58;;;;;;;0.82;0.60;;;10.40;84.00;;;;;;5054452;28;20363;-67
2023/12/24 10:17:32;;;;;;;1.20;0.70;;;10.40;84.00;;;;;;5053464;28;20036;-67
2023/12/24 10:19:58;;;;;;;0.70;0.68;;;10.40;83.90;;;;;;5054421;28;20374;-68
2023/12/24 10:22:24;;;;;;;0.80;0.40;;;10.40;83.60;;;;;;5054603;28;20216;-68
2023/12/24 10:25:17;;;;;;;2.40;0.50;;;10.50;83.70;;;;;;5072821;28;20100;-68
2023/12/24 10:27:43;;;;;;;0.60;0.50;;;10.40;83.80;;;;;;5074139;28;20035;-67
2023/12/24 10:30:10;;;;;;;0.57;0.55;;;10.40;84.00;;;;;;5073840;28;20021;-68
2023/12/24 10:32:36;;;;;;;0.80;0.50;;;10.40;84.10;;;;;;5073541;28;20409;-67
2023/12/24 10:35:02;;;;;;;1.38;0.60;;;10.50;84.20;;;;;;5073940;28;20028;-69
2023/12/24 10:37:29;;;;;;;0.68;0.55;;;10.50;83.90;;;;;;5073361;28;20035;-68
2023/12/24 10:40:06;;;;;;;1.13;0.57;;;10.50;83.80;;;;;;5073667;28;20077;-67
2023/12/24 10:42:32;;;;;;;0.90;0.50;;;10.50;83.80;;;;;;5073599;28;20036;-67
2023/12/24 10:44:57;;;;;;;0.98;0.70;;;10.50;84.00;;;;;;5073663;28;20025;-68
2023/12/24 10:47:23;;;;;;;1.13;0.80;;;10.50;83.90;;;;;;5073427;28;20052;-68
2023/12/24 10:49:48;;;;;;;0.63;0.55;;;10.50;84.00;;;;;;5073099;28;20036;-67
2023/12/24 10:52:14;;;;;;;0.73;0.40;;;10.50;84.00;;;;;;5070513;28;20033;-67
2023/12/24 10:54:41;;;;;;;0.50;0.50;;;10.60;83.60;;;;;;5053494;28;20029;-67
2023/12/24 10:57:38;;;;;;;1.23;0.60;;;10.60;83.70;;;;;;5053001;28;20106;-69
2023/12/24 11:00:14;;;;;;;0.68;0.60;;;10.60;83.80;;;;;;5053490;28;20520;-67
2023/12/24 11:02:48;;;;;;;0.50;0.40;;;10.60;83.80;;;;;;5053418;28;20035;-68
2023/12/24 11:05:43;;;;;;;0.38;0.38;;;10.60;83.90;;;;;;5052779;28;20029;-67
2023/12/24 11:08:28;;;;;;;0.90;0.60;;;10.60;84.20;;;;;;5052806;28;20449;-67
2023/12/24 11:10:54;;;;;;;0.75;0.50;;;10.60;84.40;;;;;;5052558;28;20075;-67
2023/12/24 11:13:32;;;;;;;0.40;0.40;;;10.60;84.20;;;;;;5052612;28;20029;-67
2023/12/24 11:15:58;;;;;;;1.15;0.75;;;10.60;84.30;;;;;;5052958;28;20060;-67
2023/12/24 11:18:47;;;;;;;0.77;0.52;;;10.60;84.30;;;;;;5052735;28;20112;-67
2023/12/24 11:21:18;;;;;;;1.05;0.60;;;10.60;84.50;;;;;;5052666;28;20051;-66
2023/12/24 11:24:08;;;;;;;0.80;0.55;;;10.70;84.80;;;;;;5053425;28;20029;-68
2023/12/24 11:26:34;;;;;;;0.77;0.63;;;10.70;84.20;;;;;;5052791;28;20021;-67
2023/12/24 11:29:02;;;;;;;2.85;0.60;;;10.70;84.30;;;;;;5052700;28;20258;-67
2023/12/24 11:31:28;;;;;;;1.45;0.60;;;10.70;84.60;;;;;;5052327;28;20143;-67
2023/12/24 11:33:55;;;;;;;0.68;0.50;;;10.70;84.80;;;;;;5052680;28;20060;-67
2023/12/24 11:36:22;;;;;;;0.35;0.35;;;10.70;84.90;;;;;;5052266;28;20078;-66
2023/12/24 11:38:56;;;;;;;0.57;0.50;;;10.70;85.20;;;;;;5052786;28;20072;-67
2023/12/24 11:41:23;;;;;;;1.20;0.80;;;10.70;85.60;;;;;;5052125;28;20025;-67
2023/12/24 11:43:54;;;;;;;1.10;0.77;;;10.70;85.80;;;;;;5052380;28;20462;-67
2023/12/24 11:46:21;;;;;;;;;;;10.70;85.90;;;;;;5052260;28;20025;-67
2023/12/24 11:48:47;;;;;;;2.28;0.47;;;10.70;86.30;;;;;;5052429;28;19913;-66
2023/12/24 11:51:13;;;;;;;0.40;0.30;;;10.70;86.60;;;;;;5052049;28;20025;-67
2023/12/24 11:53:40;;;;;;;0.95;0.60;;;10.70;87.10;;;;;;5052373;28;20124;-67
2023/12/24 11:56:12;;;;;;;0.85;0.50;;;10.70;87.60;;;;;;5052336;28;20079;-67
2023/12/24 11:58:47;;;;;;;0.65;0.65;;;10.70;87.90;;;;;;5052327;28;20035;-67
2023/12/24 12:01:14;;;;;;;1.83;0.95;;;10.70;88.60;;;;;;5052039;28;20386;-67
2023/12/24 12:03:39;;;;;;;0.60;0.60;;;10.70;89.00;;;;;;5052482;28;20033;-68
2023/12/24 12:06:06;;;;;;;0.52;0.52;;;10.70;89.50;;;;;;5052051;28;20530;-67
2023/12/24 12:08:32;;;;;;;1.25;0.75;;;10.70;89.80;;;;;;5051568;28;20094;-66
2023/12/24 12:10:58;;;;;;;1.10;0.90;;;10.70;90.00;;;;;;5052180;28;20025;-67
2023/12/24 12:13:24;;;;;;;0.95;0.52;;;10.70;90.20;;;;;;5051497;28;20037;-67
2023/12/24 12:15:50;;;;;;;1.35;0.65;;;10.70;90.60;;;;;;5052334;28;20032;-67
2023/12/24 12:18:16;;;;;;;1.05;0.70;;;10.70;90.70;;;;;;5051747;28;20020;-67
2023/12/24 12:20:43;;;;;;;1.30;0.70;;;10.60;91.10;;;;;;5051214;28;20490;-66
2023/12/24 12:23:09;;;;;;;1.65;0.77;;;10.60;91.30;;;;;;5067135;28;20039;-67
2023/12/24 12:25:35;;;;;;;0.50;0.43;;;10.60;91.60;;;;;;5071194;28;20107;-66
2023/12/24 12:28:01;;;;;;;0.60;0.60;;;10.50;91.70;;;;;;5071944;28;20028;-68
2023/12/24 12:30:26;;;;;;;0.68;0.57;;;10.50;92.00;;;;;;5071322;28;20025;-66
2023/12/24 12:32:52;;;;;;;0.85;0.65;;;10.50;92.20;;;;;;5071985;28;20416;-67
2023/12/24 12:35:18;;;;;;;0.50;0.50;;;10.50;92.40;;;;;;5071396;28;20028;-66
2023/12/24 12:37:44;;;;;;;0.73;0.50;;;10.50;92.60;;;;;;5071950;28;20036;-66
2023/12/24 12:40:10;;;;;;;0.88;0.50;;;10.50;92.80;;;;;;5071498;28;20448;-66
2023/12/24 12:42:36;;;;;;;0.70;0.57;;;10.50;93.10;;;;;;5071682;28;20037;-66
2023/12/24 12:45:02;;;;;;;0.70;0.50;;;10.50;93.40;;;;;;5071810;28;20518;-66
2023/12/24 12:47:28;;;;;;;0.32;0.32;;;10.40;93.70;;;;;;5071229;28;20060;-66
2023/12/24 12:49:53;;;;;;;0.40;0.40;;;10.40;94.00;;;;;;5071698;28;20433;-66